sensor_id;sensor_type;location;lat;lon;timestamp;pressure;altitude;pressure_sealevel;temperature;humidity
59170;BME280;52474;52.236;5.114;2023-06-04T00:01:55;102317.59;;;11.98;100.00
59170;BME280;52474;52.236;5.114;2023-06-04T00:04:21;102304.84;;;11.91;100.00
59170;BME280;52474;52.236;5.114;2023-06-04T00:06:48;102304.09;;;11.89;100.00
59170;BME280;52474;52.236;5.114;2023-06-04T00:09:14;102289.19;;;11.73;100.00
59170;BME280;52474;52.236;5.114;2023-06-04T00:11:40;102301.31;;;11.77;100.00
59170;BME280;52474;52.236;5.114;2023-06-04T00:14:06;102306.19;;;11.83;100.00
59170;BME280;52474;52.236;5.114;2023-06-04T00:16:32;102308.22;;;11.80;100.00
59170;BME280;52474;52.236;5.114;2023-06-04T00:19:01;102307.13;;;11.70;100.00
59170;BME280;52474;52.236;5.114;2023-06-04T00:21:27;102307.97;;;11.70;100.00
59170;BME280;52474;52.236;5.114;2023-06-04T00:23:53;102265.47;;;11.45;100.00
59170;BME280;52474;52.236;5.114;2023-06-04T00:26:18;102313.50;;;11.67;100.00
59170;BME280;52474;52.236;5.114;2023-06-04T00:28:46;102296.53;;;11.70;100.00
59170;BME280;52474;52.236;5.114;2023-06-04T00:31:12;102296.53;;;11.70;100.00
59170;BME280;52474;52.236;5.114;2023-06-04T00:33:40;102278.31;;;11.51;100.00
59170;BME280;52474;52.236;5.114;2023-06-04T00:36:06;102302.22;;;11.64;100.00
59170;BME280;52474;52.236;5.114;2023-06-04T00:38:32;102283.72;;;11.49;100.00
59170;BME280;52474;52.236;5.114;2023-06-04T00:40:58;102310.59;;;11.57;100.00
59170;BME280;52474;52.236;5.114;2023-06-04T00:43:24;102310.06;;;11.52;100.00
59170;BME280;52474;52.236;5.114;2023-06-04T00:45:52;102307.25;;;11.41;100.00
59170;BME280;52474;52.236;5.114;2023-06-04T00:48:18;102308.41;;;11.37;100.00
59170;BME280;52474;52.236;5.114;2023-06-04T00:50:44;102287.63;;;11.16;100.00
59170;BME280;52474;52.236;5.114;2023-06-04T00:53:10;102302.63;;;11.17;100.00
59170;BME280;52474;52.236;5.114;2023-06-04T00:55:36;102310.25;;;11.22;100.00
59170;BME280;52474;52.236;5.114;2023-06-04T00:58:02;102313.09;;;11.19;100.00
59170;BME280;52474;52.236;5.114;2023-06-04T01:00:30;102310.84;;;11.13;100.00
59170;BME280;52474;52.236;5.114;2023-06-04T01:03:00;102313.03;;;11.06;100.00
59170;BME280;52474;52.236;5.114;2023-06-04T01:05:54;102303.03;;;10.97;100.00
59170;BME280;52474;52.236;5.114;2023-06-04T01:08:23;102321.09;;;11.05;100.00
59170;BME280;52474;52.236;5.114;2023-06-04T01:10:52;102310.22;;;10.95;100.00
59170;BME280;52474;52.236;5.114;2023-06-04T01:13:18;102314.03;;;10.91;100.00
59170;BME280;52474;52.236;5.114;2023-06-04T01:15:44;102311.09;;;10.81;100.00
59170;BME280;52474;52.236;5.114;2023-06-04T01:18:09;102310.72;;;10.73;100.00
59170;BME280;52474;52.236;5.114;2023-06-04T01:20:42;102314.59;;;10.67;100.00
59170;BME280;52474;52.236;5.114;2023-06-04T01:25:47;102314.31;;;10.58;100.00
59170;BME280;52474;52.236;5.114;2023-06-04T01:28:15;102318.28;;;10.50;100.00
59170;BME280;52474;52.236;5.114;2023-06-04T01:30:45;102320.22;;;10.48;100.00
59170;BME280;52474;52.236;5.114;2023-06-04T01:33:16;102324.19;;;10.41;100.00
59170;BME280;52474;52.236;5.114;2023-06-04T01:35:42;102322.66;;;10.37;100.00
59170;BME280;52474;52.236;5.114;2023-06-04T01:38:09;102310.66;;;10.31;100.00
59170;BME280;52474;52.236;5.114;2023-06-04T01:40:35;102323.00;;;10.31;100.00
59170;BME280;52474;52.236;5.114;2023-06-04T01:43:01;102325.38;;;10.36;100.00
59170;BME280;52474;52.236;5.114;2023-06-04T01:45:28;102308.06;;;10.30;100.00
59170;BME280;52474;52.236;5.114;2023-06-04T01:47:54;102309.59;;;10.34;100.00
59170;BME280;52474;52.236;5.114;2023-06-04T01:50:20;102308.25;;;10.27;100.00
59170;BME280;52474;52.236;5.114;2023-06-04T01:52:46;102309.56;;;10.20;100.00
59170;BME280;52474;52.236;5.114;2023-06-04T01:55:13;102312.09;;;10.21;100.00
59170;BME280;52474;52.236;5.114;2023-06-04T01:57:41;102290.22;;;10.03;100.00
59170;BME280;52474;52.236;5.114;2023-06-04T02:00:08;102309.19;;;10.12;100.00
59170;BME280;52474;52.236;5.114;2023-06-04T02:02:43;102303.38;;;10.05;100.00
59170;BME280;52474;52.236;5.114;2023-06-04T02:05:10;102288.25;;;9.93;100.00
59170;BME280;52474;52.236;5.114;2023-06-04T02:07:40;102308.88;;;10.02;100.00
59170;BME280;52474;52.236;5.114;2023-06-04T02:10:10;102310.66;;;10.01;100.00
59170;BME280;52474;52.236;5.114;2023-06-04T02:12:38;102291.22;;;9.86;100.00
59170;BME280;52474;52.236;5.114;2023-06-04T02:15:04;102292.97;;;9.87;100.00
59170;BME280;52474;52.236;5.114;2023-06-04T02:17:31;102311.69;;;9.99;100.00
59170;BME280;52474;52.236;5.114;2023-06-04T02:20:04;102289.53;;;9.85;100.00
59170;BME280;52474;52.236;5.114;2023-06-04T02:22:31;102312.72;;;9.96;100.00
59170;BME280;52474;52.236;5.114;2023-06-04T02:24:57;102297.66;;;9.82;100.00
59170;BME280;52474;52.236;5.114;2023-06-04T02:27:22;102313.09;;;9.90;100.00
59170;BME280;52474;52.236;5.114;2023-06-04T02:29:48;102315.94;;;9.87;100.00
59170;BME280;52474;52.236;5.114;2023-06-04T02:32:13;102301.25;;;9.81;100.00
59170;BME280;52474;52.236;5.114;2023-06-04T02:34:40;102312.25;;;9.89;100.00
59170;BME280;52474;52.236;5.114;2023-06-04T02:37:05;102315.94;;;9.87;100.00
59170;BME280;52474;52.236;5.114;2023-06-04T02:39:31;102310.91;;;9.82;100.00
59170;BME280;52474;52.236;5.114;2023-06-04T02:41:57;102314.47;;;9.81;100.00
59170;BME280;52474;52.236;5.114;2023-06-04T02:44:22;102318.47;;;9.88;100.00
59170;BME280;52474;52.236;5.114;2023-06-04T02:46:48;102317.63;;;9.88;100.00
59170;BME280;52474;52.236;5.114;2023-06-04T02:49:14;102304.44;;;9.72;100.00
59170;BME280;52474;52.236;5.114;2023-06-04T02:51:40;102314.47;;;9.81;100.00
59170;BME280;52474;52.236;5.114;2023-06-04T02:54:06;102305.19;;;9.74;100.00
59170;BME280;52474;52.236;5.114;2023-06-04T02:56:33;102323.44;;;9.79;100.00
59170;BME280;52474;52.236;5.114;2023-06-04T02:58:59;102318.41;;;9.74;100.00
59170;BME280;52474;52.236;5.114;2023-06-04T03:01:25;102285.00;;;9.57;100.00
59170;BME280;52474;52.236;5.114;2023-06-04T03:03:52;102310.00;;;9.67;100.00
59170;BME280;52474;52.236;5.114;2023-06-04T03:06:19;102312.66;;;9.67;100.00
59170;BME280;52474;52.236;5.114;2023-06-04T03:08:47;102301.56;;;9.61;100.00
59170;BME280;52474;52.236;5.114;2023-06-04T03:11:13;102310.75;;;9.70;100.00
59170;BME280;52474;52.236;5.114;2023-06-04T03:13:39;102306.31;;;9.70;100.00
59170;BME280;52474;52.236;5.114;2023-06-04T03:16:05;102287.56;;;9.59;100.00
59170;BME280;52474;52.236;5.114;2023-06-04T03:18:39;102307.50;;;9.64;100.00
59170;BME280;52474;52.236;5.114;2023-06-04T03:21:06;102305.81;;;9.63;100.00
59170;BME280;52474;52.236;5.114;2023-06-04T03:23:33;102305.75;;;9.65;100.00
59170;BME280;52474;52.236;5.114;2023-06-04T03:26:01;102292.19;;;9.55;100.00
59170;BME280;52474;52.236;5.114;2023-06-04T03:28:30;102285.44;;;9.50;100.00
59170;BME280;52474;52.236;5.114;2023-06-04T03:30:57;102286.31;;;9.50;100.00
59170;BME280;52474;52.236;5.114;2023-06-04T03:33:25;102309.56;;;9.59;100.00
59170;BME280;52474;52.236;5.114;2023-06-04T03:35:51;102308.66;;;9.60;100.00
59170;BME280;52474;52.236;5.114;2023-06-04T03:38:18;102305.06;;;9.61;100.00
59170;BME280;52474;52.236;5.114;2023-06-04T03:40:45;102304.03;;;9.64;100.00
59170;BME280;52474;52.236;5.114;2023-06-04T03:43:12;102299.69;;;9.63;100.00
59170;BME280;52474;52.236;5.114;2023-06-04T03:45:38;102306.66;;;9.64;100.00
59170;BME280;52474;52.236;5.114;2023-06-04T03:48:05;102310.75;;;9.70;100.00
59170;BME280;52474;52.236;5.114;2023-06-04T03:50:33;102304.34;;;9.74;100.00
59170;BME280;52474;52.236;5.114;2023-06-04T03:52:59;102257.38;;;9.47;100.00
59170;BME280;52474;52.236;5.114;2023-06-04T03:55:27;102309.28;;;9.80;100.00
59170;BME280;52474;52.236;5.114;2023-06-04T03:57:53;102304.00;;;9.80;100.00
59170;BME280;52474;52.236;5.114;2023-06-04T04:00:19;102313.53;;;9.82;100.00
59170;BME280;52474;52.236;5.114;2023-06-04T04:02:49;102305.16;;;9.90;100.00
59170;BME280;52474;52.236;5.114;2023-06-04T04:05:21;102286.31;;;9.80;100.00
59170;BME280;52474;52.236;5.114;2023-06-04T04:07:48;102311.78;;;9.97;100.00
59170;BME280;52474;52.236;5.114;2023-06-04T04:10:16;102290.47;;;9.84;100.00
59170;BME280;52474;52.236;5.114;2023-06-04T04:12:41;102303.16;;;9.94;100.00
59170;BME280;52474;52.236;5.114;2023-06-04T04:15:07;102313.28;;;10.01;100.00
59170;BME280;52474;52.236;5.114;2023-06-04T04:17:34;102307.38;;;10.12;100.00
59170;BME280;52474;52.236;5.114;2023-06-04T04:20:00;102307.13;;;10.60;100.00
59170;BME280;52474;52.236;5.114;2023-06-04T04:22:27;102292.34;;;10.27;100.00
59170;BME280;52474;52.236;5.114;2023-06-04T04:24:52;102294.28;;;10.53;100.00
59170;BME280;52474;52.236;5.114;2023-06-04T04:27:18;102308.44;;;10.81;100.00
59170;BME280;52474;52.236;5.114;2023-06-04T04:29:44;102309.59;;;10.63;100.00
59170;BME280;52474;52.236;5.114;2023-06-04T04:32:13;102286.22;;;10.26;100.00
59170;BME280;52474;52.236;5.114;2023-06-04T04:34:52;102313.94;;;10.35;100.00
59170;BME280;52474;52.236;5.114;2023-06-04T04:37:21;102320.00;;;10.37;100.00
59170;BME280;52474;52.236;5.114;2023-06-04T04:39:48;102318.97;;;10.40;100.00
59170;BME280;52474;52.236;5.114;2023-06-04T04:42:19;102319.81;;;10.40;100.00
59170;BME280;52474;52.236;5.114;2023-06-04T04:44:47;102313.19;;;10.47;100.00
59170;BME280;52474;52.236;5.114;2023-06-04T04:47:15;102311.97;;;10.53;100.00
59170;BME280;52474;52.236;5.114;2023-06-04T04:49:41;102308.81;;;10.61;100.00
59170;BME280;52474;52.236;5.114;2023-06-04T04:52:07;102284.06;;;10.47;100.00
59170;BME280;52474;52.236;5.114;2023-06-04T04:54:34;102303.94;;;10.69;100.00
59170;BME280;52474;52.236;5.114;2023-06-04T04:57:00;102316.78;;;10.75;100.00
59170;BME280;52474;52.236;5.114;2023-06-04T04:59:26;102310.34;;;10.79;100.00
59170;BME280;52474;52.236;5.114;2023-06-04T05:01:53;102319.22;;;10.92;100.00
59170;BME280;52474;52.236;5.114;2023-06-04T05:04:18;102322.25;;;11.01;100.00
59170;BME280;52474;52.236;5.114;2023-06-04T05:06:44;102309.34;;;11.09;100.00
59170;BME280;52474;52.236;5.114;2023-06-04T05:09:10;102324.75;;;11.16;100.00
59170;BME280;52474;52.236;5.114;2023-06-04T05:11:36;102322.56;;;11.23;100.00
59170;BME280;52474;52.236;5.114;2023-06-04T05:14:02;102313.56;;;11.26;100.00
59170;BME280;52474;52.236;5.114;2023-06-04T05:16:27;102320.72;;;11.38;100.00
59170;BME280;52474;52.236;5.114;2023-06-04T05:18:56;102311.28;;;11.47;100.00
59170;BME280;52474;52.236;5.114;2023-06-04T05:21:24;102315.38;;;11.52;100.00
59170;BME280;52474;52.236;5.114;2023-06-04T05:23:58;102311.25;;;11.61;100.00
59170;BME280;52474;52.236;5.114;2023-06-04T05:26:28;102320.41;;;11.70;100.00
59170;BME280;52474;52.236;5.114;2023-06-04T05:28:59;102279.69;;;11.56;100.00
59170;BME280;52474;52.236;5.114;2023-06-04T05:31:26;102307.38;;;11.79;100.00
59170;BME280;52474;52.236;5.114;2023-06-04T05:33:54;102291.22;;;11.82;100.00
59170;BME280;52474;52.236;5.114;2023-06-04T05:36:22;102316.56;;;12.01;100.00
59170;BME280;52474;52.236;5.114;2023-06-04T05:38:56;102302.03;;;12.07;100.00
59170;BME280;52474;52.236;5.114;2023-06-04T05:41:31;102316.81;;;12.23;100.00
59170;BME280;52474;52.236;5.114;2023-06-04T05:43:59;102323.19;;;12.34;100.00
59170;BME280;52474;52.236;5.114;2023-06-04T05:46:25;102328.06;;;12.40;100.00
59170;BME280;52474;52.236;5.114;2023-06-04T05:48:51;102321.34;;;12.47;100.00
59170;BME280;52474;52.236;5.114;2023-06-04T05:51:17;102315.41;;;12.56;100.00
59170;BME280;52474;52.236;5.114;2023-06-04T05:53:44;102325.78;;;12.72;100.00
59170;BME280;52474;52.236;5.114;2023-06-04T05:56:10;102300.28;;;12.70;100.00
59170;BME280;52474;52.236;5.114;2023-06-04T05:58:36;102329.69;;;13.05;100.00
59170;BME280;52474;52.236;5.114;2023-06-04T06:01:03;102328.66;;;13.19;100.00
59170;BME280;52474;52.236;5.114;2023-06-04T06:03:29;102301.13;;;13.20;100.00
59170;BME280;52474;52.236;5.114;2023-06-04T06:05:56;102318.72;;;13.46;100.00
59170;BME280;52474;52.236;5.114;2023-06-04T06:08:23;102328.72;;;14.13;100.00
59170;BME280;52474;52.236;5.114;2023-06-04T06:10:49;102312.03;;;16.19;100.00
59170;BME280;52474;52.236;5.114;2023-06-04T06:13:15;102326.06;;;19.86;100.00
59170;BME280;52474;52.236;5.114;2023-06-04T06:15:41;102330.19;;;21.52;100.00
59170;BME280;52474;52.236;5.114;2023-06-04T06:18:07;102318.38;;;22.66;100.00
59170;BME280;52474;52.236;5.114;2023-06-04T06:20:33;102340.66;;;23.39;100.00
59170;BME280;52474;52.236;5.114;2023-06-04T06:23:06;102316.59;;;23.67;100.00
59170;BME280;52474;52.236;5.114;2023-06-04T06:25:32;102335.16;;;25.27;100.00
59170;BME280;52474;52.236;5.114;2023-06-04T06:28:03;102339.22;;;25.81;100.00
59170;BME280;52474;52.236;5.114;2023-06-04T06:30:29;102331.41;;;25.92;100.00
59170;BME280;52474;52.236;5.114;2023-06-04T06:32:55;102338.53;;;26.28;100.00
59170;BME280;52474;52.236;5.114;2023-06-04T06:35:21;102334.69;;;26.86;100.00
59170;BME280;52474;52.236;5.114;2023-06-04T06:37:47;102336.63;;;26.98;100.00
59170;BME280;52474;52.236;5.114;2023-06-04T06:40:12;102336.34;;;27.55;100.00
59170;BME280;52474;52.236;5.114;2023-06-04T06:42:38;102337.84;;;27.91;100.00
59170;BME280;52474;52.236;5.114;2023-06-04T06:45:04;102333.38;;;27.36;100.00
59170;BME280;52474;52.236;5.114;2023-06-04T06:47:30;102339.69;;;27.50;100.00
59170;BME280;52474;52.236;5.114;2023-06-04T06:49:56;102350.81;;;28.15;100.00
59170;BME280;52474;52.236;5.114;2023-06-04T06:52:22;102345.88;;;28.71;100.00
59170;BME280;52474;52.236;5.114;2023-06-04T06:54:47;102341.13;;;28.98;96.88
59170;BME280;52474;52.236;5.114;2023-06-04T06:57:13;102352.25;;;28.96;100.00
59170;BME280;52474;52.236;5.114;2023-06-04T06:59:39;102354.88;;;29.23;92.84
59170;BME280;52474;52.236;5.114;2023-06-04T07:02:05;102332.59;;;29.58;90.89
59170;BME280;52474;52.236;5.114;2023-06-04T07:04:31;102345.16;;;28.88;88.99
59170;BME280;52474;52.236;5.114;2023-06-04T07:06:57;102349.69;;;30.22;86.37
59170;BME280;52474;52.236;5.114;2023-06-04T07:09:23;102337.94;;;30.21;85.62
59170;BME280;52474;52.236;5.114;2023-06-04T07:11:48;102346.47;;;30.31;86.44
59170;BME280;52474;52.236;5.114;2023-06-04T07:14:14;102343.06;;;30.36;82.83
59170;BME280;52474;52.236;5.114;2023-06-04T07:16:40;102353.16;;;30.54;77.42
59170;BME280;52474;52.236;5.114;2023-06-04T07:19:06;102349.78;;;30.89;78.21
59170;BME280;52474;52.236;5.114;2023-06-04T07:21:31;102355.06;;;30.35;78.43
59170;BME280;52474;52.236;5.114;2023-06-04T07:23:57;102355.78;;;30.79;74.83
59170;BME280;52474;52.236;5.114;2023-06-04T07:26:23;102347.69;;;31.21;70.16
59170;BME280;52474;52.236;5.114;2023-06-04T07:28:50;102356.75;;;31.75;70.21
59170;BME280;52474;52.236;5.114;2023-06-04T07:31:16;102354.78;;;31.40;68.85
59170;BME280;52474;52.236;5.114;2023-06-04T07:33:42;102358.44;;;32.23;70.31
59170;BME280;52474;52.236;5.114;2023-06-04T07:36:15;102362.16;;;32.17;69.10
59170;BME280;52474;52.236;5.114;2023-06-04T07:38:42;102365.56;;;31.77;67.19
59170;BME280;52474;52.236;5.114;2023-06-04T07:41:08;102356.16;;;32.56;63.57
59170;BME280;52474;52.236;5.114;2023-06-04T07:43:35;102351.16;;;32.93;62.34
59170;BME280;52474;52.236;5.114;2023-06-04T07:46:04;102338.91;;;32.20;63.86
59170;BME280;52474;52.236;5.114;2023-06-04T07:48:30;102339.75;;;32.84;63.28
59170;BME280;52474;52.236;5.114;2023-06-04T07:51:00;102355.72;;;32.87;57.20
59170;BME280;52474;52.236;5.114;2023-06-04T07:53:26;102348.66;;;32.91;58.68
59170;BME280;52474;52.236;5.114;2023-06-04T07:55:53;102355.09;;;32.21;59.27
59170;BME280;52474;52.236;5.114;2023-06-04T07:58:19;102360.75;;;32.03;58.25
59170;BME280;52474;52.236;5.114;2023-06-04T08:00:45;102361.16;;;32.59;59.06
59170;BME280;52474;52.236;5.114;2023-06-04T08:03:11;102355.75;;;32.76;57.92
59170;BME280;52474;52.236;5.114;2023-06-04T08:05:36;102342.66;;;33.06;57.24
59170;BME280;52474;52.236;5.114;2023-06-04T08:08:02;102345.25;;;33.30;53.33
59170;BME280;52474;52.236;5.114;2023-06-04T08:10:29;102349.84;;;33.70;54.35
59170;BME280;52474;52.236;5.114;2023-06-04T08:12:55;102351.69;;;33.35;55.72
59170;BME280;52474;52.236;5.114;2023-06-04T08:15:21;102360.56;;;34.44;52.67
59170;BME280;52474;52.236;5.114;2023-06-04T08:18:07;102358.25;;;33.63;53.48
59170;BME280;52474;52.236;5.114;2023-06-04T08:20:40;102355.72;;;32.87;56.78
59170;BME280;52474;52.236;5.114;2023-06-04T08:23:24;102358.72;;;34.11;54.01
59170;BME280;52474;52.236;5.114;2023-06-04T08:26:10;102354.47;;;33.52;56.50
59170;BME280;52474;52.236;5.114;2023-06-04T08:28:49;102357.91;;;35.20;52.70
59170;BME280;52474;52.236;5.114;2023-06-04T08:31:16;102347.63;;;35.11;48.13
59170;BME280;52474;52.236;5.114;2023-06-04T08:33:53;102361.34;;;35.65;45.78
59170;BME280;52474;52.236;5.114;2023-06-04T08:36:20;102354.00;;;34.94;45.40
59170;BME280;52474;52.236;5.114;2023-06-04T08:38:46;102349.97;;;34.58;43.69
59170;BME280;52474;52.236;5.114;2023-06-04T08:41:29;102357.81;;;35.10;43.09
59170;BME280;52474;52.236;5.114;2023-06-04T08:43:56;102357.34;;;35.51;42.91
59170;BME280;52474;52.236;5.114;2023-06-04T08:46:23;102356.16;;;35.74;45.23
59170;BME280;52474;52.236;5.114;2023-06-04T08:48:49;102348.38;;;35.65;49.33
59170;BME280;52474;52.236;5.114;2023-06-04T08:51:15;102348.44;;;35.43;48.36
59170;BME280;52474;52.236;5.114;2023-06-04T08:53:42;102359.09;;;34.36;50.16
59170;BME280;52474;52.236;5.114;2023-06-04T08:56:08;102349.91;;;33.75;52.65
59170;BME280;52474;52.236;5.114;2023-06-04T08:58:36;102359.97;;;34.42;50.43
59170;BME280;52474;52.236;5.114;2023-06-04T09:01:02;102355.81;;;34.39;50.60
59170;BME280;52474;52.236;5.114;2023-06-04T09:03:29;102359.84;;;34.54;45.25
59170;BME280;52474;52.236;5.114;2023-06-04T09:06:01;102346.19;;;35.08;48.19
59170;BME280;52474;52.236;5.114;2023-06-04T09:08:31;102353.66;;;34.86;46.81
59170;BME280;52474;52.236;5.114;2023-06-04T09:11:03;102356.34;;;34.58;49.79
59170;BME280;52474;52.236;5.114;2023-06-04T09:13:31;102349.66;;;33.76;53.90
59170;BME280;52474;52.236;5.114;2023-06-04T09:16:04;102345.53;;;33.96;54.71
59170;BME280;52474;52.236;5.114;2023-06-04T09:18:32;102345.25;;;33.59;57.77
59170;BME280;52474;52.236;5.114;2023-06-04T09:21:06;102341.09;;;33.27;64.73
59170;BME280;52474;52.236;5.114;2023-06-04T09:23:43;102341.97;;;33.95;56.65
59170;BME280;52474;52.236;5.114;2023-06-04T09:26:10;102343.69;;;33.34;60.99
59170;BME280;52474;52.236;5.114;2023-06-04T09:28:45;102348.19;;;34.63;56.00
59170;BME280;52474;52.236;5.114;2023-06-04T09:31:17;102344.88;;;34.06;59.84
59170;BME280;52474;52.236;5.114;2023-06-04T09:33:43;102344.81;;;33.84;60.42
59170;BME280;52474;52.236;5.114;2023-06-04T09:36:10;102349.63;;;33.93;60.96
59170;BME280;52474;52.236;5.114;2023-06-04T09:38:36;102352.47;;;34.15;61.61
59170;BME280;52474;52.236;5.114;2023-06-04T09:41:03;102360.16;;;33.63;62.91
59170;BME280;52474;52.236;5.114;2023-06-04T09:43:32;102356.06;;;33.20;59.36
59170;BME280;52474;52.236;5.114;2023-06-04T09:46:11;102356.69;;;33.39;62.51
59170;BME280;52474;52.236;5.114;2023-06-04T09:48:38;102357.91;;;33.14;62.11
59170;BME280;52474;52.236;5.114;2023-06-04T09:51:15;102336.00;;;32.62;66.24
59170;BME280;52474;52.236;5.114;2023-06-04T09:53:53;102346.78;;;33.21;63.75
59170;BME280;52474;52.236;5.114;2023-06-04T09:56:19;102352.94;;;33.45;65.32
59170;BME280;52474;52.236;5.114;2023-06-04T09:58:45;102352.13;;;32.87;63.47
59170;BME280;52474;52.236;5.114;2023-06-04T10:01:11;102344.72;;;32.47;65.66
59170;BME280;52474;52.236;5.114;2023-06-04T10:03:39;102351.41;;;33.20;68.27
59170;BME280;52474;52.236;5.114;2023-06-04T10:06:08;102354.22;;;32.68;65.54
59170;BME280;52474;52.236;5.114;2023-06-04T10:08:34;102362.03;;;32.24;65.17
59170;BME280;52474;52.236;5.114;2023-06-04T10:11:02;102351.72;;;32.95;66.70
59170;BME280;52474;52.236;5.114;2023-06-04T10:13:37;102357.00;;;32.44;65.07
59170;BME280;52474;52.236;5.114;2023-06-04T10:16:05;102362.16;;;32.05;65.26
59170;BME280;52474;52.236;5.114;2023-06-04T10:18:33;102350.09;;;32.30;70.30
59170;BME280;52474;52.236;5.114;2023-06-04T10:20:58;102353.63;;;33.06;70.54
59170;BME280;52474;52.236;5.114;2023-06-04T10:23:24;102352.66;;;33.12;69.53
59170;BME280;52474;52.236;5.114;2023-06-04T10:25:51;102342.09;;;33.21;71.45
59170;BME280;52474;52.236;5.114;2023-06-04T10:28:22;102356.06;;;33.20;68.68
59170;BME280;52474;52.236;5.114;2023-06-04T10:30:49;102351.53;;;33.25;71.29
59170;BME280;52474;52.236;5.114;2023-06-04T10:33:18;102337.88;;;33.30;67.48
59170;BME280;52474;52.236;5.114;2023-06-04T10:35:45;102346.16;;;32.26;70.68
59170;BME280;52474;52.236;5.114;2023-06-04T10:38:12;102351.97;;;32.65;68.86
59170;BME280;52474;52.236;5.114;2023-06-04T10:40:42;102342.66;;;33.06;70.34
59170;BME280;52474;52.236;5.114;2023-06-04T10:43:12;102352.31;;;31.51;77.33
59170;BME280;52474;52.236;5.114;2023-06-04T10:45:40;102348.25;;;32.71;76.33
59170;BME280;52474;52.236;5.114;2023-06-04T10:48:07;102352.00;;;32.53;77.58
59170;BME280;52474;52.236;5.114;2023-06-04T10:50:34;102355.19;;;31.79;84.34
59170;BME280;52474;52.236;5.114;2023-06-04T10:53:00;102351.84;;;31.54;79.79
59170;BME280;52474;52.236;5.114;2023-06-04T10:55:31;102334.72;;;31.58;80.48
59170;BME280;52474;52.236;5.114;2023-06-04T10:57:58;102343.16;;;31.92;81.97
59170;BME280;52474;52.236;5.114;2023-06-04T11:00:35;102349.94;;;31.24;79.91
59170;BME280;52474;52.236;5.114;2023-06-04T11:03:01;102344.63;;;30.80;83.44
59170;BME280;52474;52.236;5.114;2023-06-04T11:05:35;102341.97;;;31.64;77.99
59170;BME280;52474;52.236;5.114;2023-06-04T11:08:01;102363.34;;;30.84;79.84
59170;BME280;52474;52.236;5.114;2023-06-04T11:10:32;102348.34;;;31.05;77.78
59170;BME280;52474;52.236;5.114;2023-06-04T11:12:59;102356.34;;;31.18;79.94
59170;BME280;52474;52.236;5.114;2023-06-04T11:15:24;102338.19;;;31.23;78.73
59170;BME280;52474;52.236;5.114;2023-06-04T11:17:52;102341.91;;;30.99;80.14
59170;BME280;52474;52.236;5.114;2023-06-04T11:20:19;102353.28;;;30.96;77.63
59170;BME280;52474;52.236;5.114;2023-06-04T11:22:53;102349.25;;;30.80;78.71
59170;BME280;52474;52.236;5.114;2023-06-04T11:25:19;102351.31;;;30.29;83.11
59170;BME280;52474;52.236;5.114;2023-06-04T11:27:45;102351.59;;;31.25;81.46
59170;BME280;52474;52.236;5.114;2023-06-04T11:30:11;102343.22;;;31.08;77.83
59170;BME280;52474;52.236;5.114;2023-06-04T11:32:37;102346.09;;;30.83;77.50
59170;BME280;52474;52.236;5.114;2023-06-04T11:35:06;102342.59;;;29.95;79.15
59170;BME280;52474;52.236;5.114;2023-06-04T11:37:33;102347.97;;;29.84;80.67
59170;BME280;52474;52.236;5.114;2023-06-04T11:39:59;102350.63;;;30.71;78.16
59170;BME280;52474;52.236;5.114;2023-06-04T11:42:29;102342.00;;;29.93;79.61
59170;BME280;52474;52.236;5.114;2023-06-04T11:44:55;102338.00;;;30.14;79.28
59170;BME280;52474;52.236;5.114;2023-06-04T11:47:21;102337.03;;;29.84;78.85
59170;BME280;52474;52.236;5.114;2023-06-04T11:49:47;102331.91;;;29.69;83.12
59170;BME280;52474;52.236;5.114;2023-06-04T11:52:14;102332.28;;;29.09;84.29
59170;BME280;52474;52.236;5.114;2023-06-04T11:54:40;102340.16;;;29.24;81.68
59170;BME280;52474;52.236;5.114;2023-06-04T11:57:06;102337.03;;;29.84;80.88
59170;BME280;52474;52.236;5.114;2023-06-04T11:59:32;102327.00;;;29.46;81.38
59170;BME280;52474;52.236;5.114;2023-06-04T12:01:58;102317.81;;;28.57;83.19
59170;BME280;52474;52.236;5.114;2023-06-04T12:04:23;102322.72;;;29.31;82.80
59170;BME280;52474;52.236;5.114;2023-06-04T12:06:56;102322.91;;;29.87;81.41
59170;BME280;52474;52.236;5.114;2023-06-04T12:09:24;102320.56;;;30.15;86.04
59170;BME280;52474;52.236;5.114;2023-06-04T12:11:59;102319.38;;;29.54;89.96
59170;BME280;52474;52.236;5.114;2023-06-04T12:14:25;102325.09;;;29.78;86.42
59170;BME280;52474;52.236;5.114;2023-06-04T12:17:09;102324.72;;;29.43;83.33
59170;BME280;52474;52.236;5.114;2023-06-04T12:19:46;102313.69;;;28.93;87.63
59170;BME280;52474;52.236;5.114;2023-06-04T12:22:13;102303.25;;;28.83;87.19
59170;BME280;52474;52.236;5.114;2023-06-04T12:24:47;102313.44;;;28.56;90.58
59170;BME280;52474;52.236;5.114;2023-06-04T12:27:14;102322.28;;;29.60;82.48
59170;BME280;52474;52.236;5.114;2023-06-04T12:29:40;102306.34;;;28.35;88.42
59170;BME280;52474;52.236;5.114;2023-06-04T12:32:08;102323.94;;;28.97;91.05
59170;BME280;52474;52.236;5.114;2023-06-04T12:34:34;102320.63;;;28.17;93.08
59170;BME280;52474;52.236;5.114;2023-06-04T12:37:01;102328.28;;;28.66;91.78
59170;BME280;52474;52.236;5.114;2023-06-04T12:39:29;102333.66;;;27.88;91.53
59170;BME280;52474;52.236;5.114;2023-06-04T12:41:55;102326.47;;;28.40;93.59
59170;BME280;52474;52.236;5.114;2023-06-04T12:44:21;102302.88;;;27.74;87.93
59170;BME280;52474;52.236;5.114;2023-06-04T12:46:47;102321.91;;;27.81;92.58
59170;BME280;52474;52.236;5.114;2023-06-04T12:49:12;102326.75;;;27.86;92.61
59170;BME280;52474;52.236;5.114;2023-06-04T12:51:38;102313.97;;;27.86;94.17